Terminal Aerodrome Forecast
Issued by NWS Green Bay, WI

Home | Current Version | Previous Version | Graphics & Text | Print | Product List | Glossary On
Versions: 1 2 3 4 5 6 7 8 9 10 11 12 13 14 15 16 17 18 19 20 21 22 23 24 25 26 27 28 29 30
000
FTUS43 KGRB 212320
TAFGRB
TAF
KGRB 212320Z 2200/2224 01011KT P6SM BKN050
     FM220200 01008KT P6SM SKC
     FM221400 05007KT P6SM SCT250
     FM222000 12007KT P6SM BKN150=

USA.gov is the U.S. government's official web portal to all federal, state and local government web resources and services.